sensor_id;sensor_type;location;lat;lon;timestamp;P1;P2;P0
55549;PMS7003;41397;49.972;18.944;2023-05-10T00:00:09;21;21;17
55549;PMS7003;41397;49.972;18.944;2023-05-10T00:03:16;20;20;16
55549;PMS7003;41397;49.972;18.944;2023-05-10T00:06:18;15;15;10
55549;PMS7003;41397;49.972;18.944;2023-05-10T00:09:19;25;25;16
55549;PMS7003;41397;49.972;18.944;2023-05-10T00:12:20;18;18;16
55549;PMS7003;41397;49.972;18.944;2023-05-10T00:15:22;19;18;13
55549;PMS7003;41397;49.972;18.944;2023-05-10T00:18:25;24;24;16
55549;PMS7003;41397;49.972;18.944;2023-05-10T00:21:27;20;20;15
55549;PMS7003;41397;49.972;18.944;2023-05-10T00:24:29;13;13;8
55549;PMS7003;41397;49.972;18.944;2023-05-10T00:27:30;16;16;13
55549;PMS7003;41397;49.972;18.944;2023-05-10T00:30:31;17;17;16
55549;PMS7003;41397;49.972;18.944;2023-05-10T00:33:33;18;18;13
55549;PMS7003;41397;49.972;18.944;2023-05-10T00:36:34;9;9;8
55549;PMS7003;41397;49.972;18.944;2023-05-10T00:39:35;18;12;10
55549;PMS7003;41397;49.972;18.944;2023-05-10T00:42:36;19;19;11
55549;PMS7003;41397;49.972;18.944;2023-05-10T00:45:38;14;14;12
55549;PMS7003;41397;49.972;18.944;2023-05-10T00:48:42;18;18;12
55549;PMS7003;41397;49.972;18.944;2023-05-10T00:51:44;16;16;12
55549;PMS7003;41397;49.972;18.944;2023-05-10T00:54:46;14;14;11
55549;PMS7003;41397;49.972;18.944;2023-05-10T00:57:48;13;13;11
55549;PMS7003;41397;49.972;18.944;2023-05-10T01:00:50;16;16;10
55549;PMS7003;41397;49.972;18.944;2023-05-10T01:03:53;14;14;13
55549;PMS7003;41397;49.972;18.944;2023-05-10T01:06:56;20;20;15
55549;PMS7003;41397;49.972;18.944;2023-05-10T01:09:58;15;15;13
55549;PMS7003;41397;49.972;18.944;2023-05-10T01:13:00;18;18;15
55549;PMS7003;41397;49.972;18.944;2023-05-10T01:16:04;16;16;13
55549;PMS7003;41397;49.972;18.944;2023-05-10T01:19:10;20;20;13
55549;PMS7003;41397;49.972;18.944;2023-05-10T01:25:37;13;13;10
55549;PMS7003;41397;49.972;18.944;2023-05-10T01:32:04;14;10;6
55549;PMS7003;41397;49.972;18.944;2023-05-10T01:35:17;19;19;14
55549;PMS7003;41397;49.972;18.944;2023-05-10T01:38:29;18;18;15
55549;PMS7003;41397;49.972;18.944;2023-05-10T01:41:46;17;17;16
55549;PMS7003;41397;49.972;18.944;2023-05-10T01:44:58;20;20;14
55549;PMS7003;41397;49.972;18.944;2023-05-10T01:48:07;17;17;13
55549;PMS7003;41397;49.972;18.944;2023-05-10T01:51:11;14;14;12
55549;PMS7003;41397;49.972;18.944;2023-05-10T01:54:15;13;13;11
55549;PMS7003;41397;49.972;18.944;2023-05-10T01:57:21;21;21;15
55549;PMS7003;41397;49.972;18.944;2023-05-10T02:00:28;23;19;15
55549;PMS7003;41397;49.972;18.944;2023-05-10T02:03:31;22;22;16
55549;PMS7003;41397;49.972;18.944;2023-05-10T02:06:35;22;22;17
55549;PMS7003;41397;49.972;18.944;2023-05-10T02:09:40;16;16;13
55549;PMS7003;41397;49.972;18.944;2023-05-10T02:12:45;15;15;13
55549;PMS7003;41397;49.972;18.944;2023-05-10T02:15:51;15;15;12
55549;PMS7003;41397;49.972;18.944;2023-05-10T02:18:55;21;21;17
55549;PMS7003;41397;49.972;18.944;2023-05-10T02:21:59;19;19;15
55549;PMS7003;41397;49.972;18.944;2023-05-10T02:25:01;16;16;14
55549;PMS7003;41397;49.972;18.944;2023-05-10T02:28:05;22;22;19
55549;PMS7003;41397;49.972;18.944;2023-05-10T02:31:08;21;21;15
55549;PMS7003;41397;49.972;18.944;2023-05-10T02:34:11;21;21;15
55549;PMS7003;41397;49.972;18.944;2023-05-10T02:37:14;15;15;13
55549;PMS7003;41397;49.972;18.944;2023-05-10T02:40:19;20;20;14
55549;PMS7003;41397;49.972;18.944;2023-05-10T02:43:26;22;22;13
55549;PMS7003;41397;49.972;18.944;2023-05-10T02:46:33;15;15;11
55549;PMS7003;41397;49.972;18.944;2023-05-10T02:49:36;18;18;15
55549;PMS7003;41397;49.972;18.944;2023-05-10T02:52:43;22;22;15
55549;PMS7003;41397;49.972;18.944;2023-05-10T02:55:50;20;20;15
55549;PMS7003;41397;49.972;18.944;2023-05-10T02:58:54;16;16;12
55549;PMS7003;41397;49.972;18.944;2023-05-10T03:01:56;18;18;13
55549;PMS7003;41397;49.972;18.944;2023-05-10T03:04:57;23;23;18
55549;PMS7003;41397;49.972;18.944;2023-05-10T03:07:59;19;19;13
55549;PMS7003;41397;49.972;18.944;2023-05-10T03:14:30;18;18;15
55549;PMS7003;41397;49.972;18.944;2023-05-10T03:20:50;18;18;15
55549;PMS7003;41397;49.972;18.944;2023-05-10T03:24:04;19;17;13
55549;PMS7003;41397;49.972;18.944;2023-05-10T03:27:07;20;20;14
55549;PMS7003;41397;49.972;18.944;2023-05-10T03:30:10;25;25;17
55549;PMS7003;41397;49.972;18.944;2023-05-10T03:33:14;19;19;12
55549;PMS7003;41397;49.972;18.944;2023-05-10T03:36:15;18;18;14
55549;PMS7003;41397;49.972;18.944;2023-05-10T03:39:17;21;21;17
55549;PMS7003;41397;49.972;18.944;2023-05-10T03:42:19;16;16;13
55549;PMS7003;41397;49.972;18.944;2023-05-10T03:45:22;21;21;18
55549;PMS7003;41397;49.972;18.944;2023-05-10T03:48:24;17;17;12
55549;PMS7003;41397;49.972;18.944;2023-05-10T03:51:25;23;23;13
55549;PMS7003;41397;49.972;18.944;2023-05-10T03:54:28;14;14;13
55549;PMS7003;41397;49.972;18.944;2023-05-10T03:57:30;22;22;17
55549;PMS7003;41397;49.972;18.944;2023-05-10T04:00:31;25;25;16
55549;PMS7003;41397;49.972;18.944;2023-05-10T04:03:43;18;18;15
55549;PMS7003;41397;49.972;18.944;2023-05-10T04:06:44;22;22;18
55549;PMS7003;41397;49.972;18.944;2023-05-10T04:09:46;18;18;13
55549;PMS7003;41397;49.972;18.944;2023-05-10T04:12:48;18;18;14
55549;PMS7003;41397;49.972;18.944;2023-05-10T04:15:50;18;18;11
55549;PMS7003;41397;49.972;18.944;2023-05-10T04:18:51;19;19;14
55549;PMS7003;41397;49.972;18.944;2023-05-10T04:21:53;16;16;13
55549;PMS7003;41397;49.972;18.944;2023-05-10T04:24:54;19;19;16
55549;PMS7003;41397;49.972;18.944;2023-05-10T04:27:55;24;24;18
55549;PMS7003;41397;49.972;18.944;2023-05-10T04:31:01;15;15;13
55549;PMS7003;41397;49.972;18.944;2023-05-10T04:34:06;21;21;14
55549;PMS7003;41397;49.972;18.944;2023-05-10T04:37:12;17;17;13
55549;PMS7003;41397;49.972;18.944;2023-05-10T04:40:14;22;22;14
55549;PMS7003;41397;49.972;18.944;2023-05-10T04:43:15;22;22;16
55549;PMS7003;41397;49.972;18.944;2023-05-10T04:46:17;23;23;15
55549;PMS7003;41397;49.972;18.944;2023-05-10T04:49:20;18;18;13
55549;PMS7003;41397;49.972;18.944;2023-05-10T04:52:22;18;18;14
55549;PMS7003;41397;49.972;18.944;2023-05-10T04:55:24;16;16;11
55549;PMS7003;41397;49.972;18.944;2023-05-10T04:58:27;14;14;12
55549;PMS7003;41397;49.972;18.944;2023-05-10T05:01:28;15;15;12
55549;PMS7003;41397;49.972;18.944;2023-05-10T05:04:30;18;18;13
55549;PMS7003;41397;49.972;18.944;2023-05-10T05:07:32;20;20;17
55549;PMS7003;41397;49.972;18.944;2023-05-10T05:10:33;12;12;10
55549;PMS7003;41397;49.972;18.944;2023-05-10T05:13:36;22;20;15
55549;PMS7003;41397;49.972;18.944;2023-05-10T05:16:38;16;16;14
55549;PMS7003;41397;49.972;18.944;2023-05-10T05:19:39;14;14;13
55549;PMS7003;41397;49.972;18.944;2023-05-10T05:22:40;15;14;10
55549;PMS7003;41397;49.972;18.944;2023-05-10T05:25:44;15;15;8
55549;PMS7003;41397;49.972;18.944;2023-05-10T05:28:45;13;13;11
55549;PMS7003;41397;49.972;18.944;2023-05-10T05:31:50;14;14;9
55549;PMS7003;41397;49.972;18.944;2023-05-10T05:34:51;18;18;13
55549;PMS7003;41397;49.972;18.944;2023-05-10T05:37:53;16;16;13
55549;PMS7003;41397;49.972;18.944;2023-05-10T05:40:54;18;18;12
55549;PMS7003;41397;49.972;18.944;2023-05-10T05:43:56;13;13;11
55549;PMS7003;41397;49.972;18.944;2023-05-10T05:46:57;14;14;13
55549;PMS7003;41397;49.972;18.944;2023-05-10T05:50:00;13;13;11
55549;PMS7003;41397;49.972;18.944;2023-05-10T05:53:01;14;14;10
55549;PMS7003;41397;49.972;18.944;2023-05-10T05:56:03;17;17;9
55549;PMS7003;41397;49.972;18.944;2023-05-10T05:59:05;11;11;9
55549;PMS7003;41397;49.972;18.944;2023-05-10T06:02:09;13;13;9
55549;PMS7003;41397;49.972;18.944;2023-05-10T06:05:11;14;14;12
55549;PMS7003;41397;49.972;18.944;2023-05-10T06:08:14;14;14;12
55549;PMS7003;41397;49.972;18.944;2023-05-10T06:11:16;15;12;10
55549;PMS7003;41397;49.972;18.944;2023-05-10T06:14:17;13;13;9
55549;PMS7003;41397;49.972;18.944;2023-05-10T06:17:21;7;7;5
55549;PMS7003;41397;49.972;18.944;2023-05-10T06:20:22;10;10;9
55549;PMS7003;41397;49.972;18.944;2023-05-10T06:23:24;11;11;8
55549;PMS7003;41397;49.972;18.944;2023-05-10T06:26:27;10;10;8
55549;PMS7003;41397;49.972;18.944;2023-05-10T06:29:28;7;7;5
55549;PMS7003;41397;49.972;18.944;2023-05-10T06:32:29;12;12;8
55549;PMS7003;41397;49.972;18.944;2023-05-10T06:35:31;10;10;9
55549;PMS7003;41397;49.972;18.944;2023-05-10T06:38:34;7;7;6
55549;PMS7003;41397;49.972;18.944;2023-05-10T06:41:36;8;8;6
55549;PMS7003;41397;49.972;18.944;2023-05-10T06:44:37;5;5;4
55549;PMS7003;41397;49.972;18.944;2023-05-10T06:47:39;7;7;6
55549;PMS7003;41397;49.972;18.944;2023-05-10T06:50:41;8;8;7
55549;PMS7003;41397;49.972;18.944;2023-05-10T06:53:42;11;11;11
55549;PMS7003;41397;49.972;18.944;2023-05-10T06:56:44;6;6;6
55549;PMS7003;41397;49.972;18.944;2023-05-10T06:59:45;9;9;6
55549;PMS7003;41397;49.972;18.944;2023-05-10T07:02:47;5;5;4
55549;PMS7003;41397;49.972;18.944;2023-05-10T07:05:48;6;6;5
55549;PMS7003;41397;49.972;18.944;2023-05-10T07:08:50;5;5;5
55549;PMS7003;41397;49.972;18.944;2023-05-10T07:11:51;9;9;8
55549;PMS7003;41397;49.972;18.944;2023-05-10T07:14:54;7;7;6
55549;PMS7003;41397;49.972;18.944;2023-05-10T07:17:56;6;6;5
55549;PMS7003;41397;49.972;18.944;2023-05-10T07:20:57;8;8;5
55549;PMS7003;41397;49.972;18.944;2023-05-10T07:23:59;4;4;3
55549;PMS7003;41397;49.972;18.944;2023-05-10T07:27:02;8;8;5
55549;PMS7003;41397;49.972;18.944;2023-05-10T07:30:04;5;5;4
55549;PMS7003;41397;49.972;18.944;2023-05-10T07:33:07;8;8;7
55549;PMS7003;41397;49.972;18.944;2023-05-10T07:36:10;6;6;6
55549;PMS7003;41397;49.972;18.944;2023-05-10T07:39:11;8;8;7
55549;PMS7003;41397;49.972;18.944;2023-05-10T07:42:13;8;8;6
55549;PMS7003;41397;49.972;18.944;2023-05-10T07:45:14;6;6;5
55549;PMS7003;41397;49.972;18.944;2023-05-10T07:48:16;5;5;5
55549;PMS7003;41397;49.972;18.944;2023-05-10T07:51:17;6;6;6
55549;PMS7003;41397;49.972;18.944;2023-05-10T07:54:19;9;9;6
55549;PMS7003;41397;49.972;18.944;2023-05-10T07:57:21;8;8;5
55549;PMS7003;41397;49.972;18.944;2023-05-10T08:00:22;7;7;6
55549;PMS7003;41397;49.972;18.944;2023-05-10T08:03:25;9;9;6
55549;PMS7003;41397;49.972;18.944;2023-05-10T08:06:27;6;6;5
55549;PMS7003;41397;49.972;18.944;2023-05-10T08:09:30;8;8;6
55549;PMS7003;41397;49.972;18.944;2023-05-10T08:12:32;4;4;4
55549;PMS7003;41397;49.972;18.944;2023-05-10T08:15:33;6;6;5
55549;PMS7003;41397;49.972;18.944;2023-05-10T08:18:34;8;8;6
55549;PMS7003;41397;49.972;18.944;2023-05-10T08:21:36;7;7;7
55549;PMS7003;41397;49.972;18.944;2023-05-10T08:24:38;8;8;7
55549;PMS7003;41397;49.972;18.944;2023-05-10T08:27:41;11;11;8
55549;PMS7003;41397;49.972;18.944;2023-05-10T08:30:42;7;7;6
55549;PMS7003;41397;49.972;18.944;2023-05-10T08:33:43;7;7;6
55549;PMS7003;41397;49.972;18.944;2023-05-10T08:36:45;8;8;7
55549;PMS7003;41397;49.972;18.944;2023-05-10T08:39:49;7;7;5
55549;PMS7003;41397;49.972;18.944;2023-05-10T08:42:51;5;5;5
55549;PMS7003;41397;49.972;18.944;2023-05-10T08:45:59;6;6;5
55549;PMS7003;41397;49.972;18.944;2023-05-10T08:49:06;6;6;5
55549;PMS7003;41397;49.972;18.944;2023-05-10T08:52:11;6;6;5
55549;PMS7003;41397;49.972;18.944;2023-05-10T08:55:17;6;6;4
55549;PMS7003;41397;49.972;18.944;2023-05-10T08:58:20;6;6;6
55549;PMS7003;41397;49.972;18.944;2023-05-10T09:01:21;7;7;6
55549;PMS7003;41397;49.972;18.944;2023-05-10T09:04:23;8;8;7
55549;PMS7003;41397;49.972;18.944;2023-05-10T09:07:25;6;6;6
55549;PMS7003;41397;49.972;18.944;2023-05-10T09:10:27;8;8;5
55549;PMS7003;41397;49.972;18.944;2023-05-10T09:13:31;7;7;6
55549;PMS7003;41397;49.972;18.944;2023-05-10T09:16:33;8;8;7
55549;PMS7003;41397;49.972;18.944;2023-05-10T09:19:35;5;5;4
55549;PMS7003;41397;49.972;18.944;2023-05-10T09:22:58;4;4;3
55549;PMS7003;41397;49.972;18.944;2023-05-10T09:26:01;5;5;4
55549;PMS7003;41397;49.972;18.944;2023-05-10T09:29:04;5;5;4
55549;PMS7003;41397;49.972;18.944;2023-05-10T09:32:08;5;5;4
55549;PMS7003;41397;49.972;18.944;2023-05-10T09:35:14;6;6;5
55549;PMS7003;41397;49.972;18.944;2023-05-10T09:38:21;8;8;5
55549;PMS7003;41397;49.972;18.944;2023-05-10T09:41:23;8;8;7
55549;PMS7003;41397;49.972;18.944;2023-05-10T09:44:25;6;6;6
55549;PMS7003;41397;49.972;18.944;2023-05-10T09:47:27;5;5;4
55549;PMS7003;41397;49.972;18.944;2023-05-10T09:50:29;7;7;5
55549;PMS7003;41397;49.972;18.944;2023-05-10T09:53:31;5;5;4
55549;PMS7003;41397;49.972;18.944;2023-05-10T09:56:33;5;5;4
55549;PMS7003;41397;49.972;18.944;2023-05-10T09:59:42;5;5;4
55549;PMS7003;41397;49.972;18.944;2023-05-10T10:03:05;5;5;5
55549;PMS7003;41397;49.972;18.944;2023-05-10T10:05:56;5;5;4
55549;PMS7003;41397;49.972;18.944;2023-05-10T10:08:58;4;4;4
55549;PMS7003;41397;49.972;18.944;2023-05-10T10:12:02;7;7;5
55549;PMS7003;41397;49.972;18.944;2023-05-10T10:15:05;7;7;6
55549;PMS7003;41397;49.972;18.944;2023-05-10T10:18:11;9;4;4
55549;PMS7003;41397;49.972;18.944;2023-05-10T10:21:22;7;7;4
55549;PMS7003;41397;49.972;18.944;2023-05-10T10:24:24;4;4;3
55549;PMS7003;41397;49.972;18.944;2023-05-10T10:30:42;4;4;4
55549;PMS7003;41397;49.972;18.944;2023-05-10T10:37:06;4;4;3
55549;PMS7003;41397;49.972;18.944;2023-05-10T10:43:26;7;7;6
55549;PMS7003;41397;49.972;18.944;2023-05-10T10:46:28;4;4;3
55549;PMS7003;41397;49.972;18.944;2023-05-10T10:49:33;5;5;4
55549;PMS7003;41397;49.972;18.944;2023-05-10T10:52:40;5;5;4
55549;PMS7003;41397;49.972;18.944;2023-05-10T10:55:46;4;4;3
55549;PMS7003;41397;49.972;18.944;2023-05-10T10:58:51;3;3;3
55549;PMS7003;41397;49.972;18.944;2023-05-10T11:01:54;5;5;4
55549;PMS7003;41397;49.972;18.944;2023-05-10T11:04:56;5;5;5
55549;PMS7003;41397;49.972;18.944;2023-05-10T11:07:58;5;5;5
55549;PMS7003;41397;49.972;18.944;2023-05-10T11:11:04;12;12;9
55549;PMS7003;41397;49.972;18.944;2023-05-10T11:14:10;3;3;2
55549;PMS7003;41397;49.972;18.944;2023-05-10T11:20:27;3;3;3
55549;PMS7003;41397;49.972;18.944;2023-05-10T11:26:49;2;2;2
55549;PMS7003;41397;49.972;18.944;2023-05-10T11:29:54;4;4;3
55549;PMS7003;41397;49.972;18.944;2023-05-10T11:32:55;5;5;5
55549;PMS7003;41397;49.972;18.944;2023-05-10T11:35:57;4;4;3
55549;PMS7003;41397;49.972;18.944;2023-05-10T11:38:59;3;3;3
55549;PMS7003;41397;49.972;18.944;2023-05-10T11:42:00;1;1;1
55549;PMS7003;41397;49.972;18.944;2023-05-10T11:45:01;2;2;2
55549;PMS7003;41397;49.972;18.944;2023-05-10T11:48:03;2;2;2
55549;PMS7003;41397;49.972;18.944;2023-05-10T11:51:06;4;4;3
55549;PMS7003;41397;49.972;18.944;2023-05-10T11:54:09;1;1;1
55549;PMS7003;41397;49.972;18.944;2023-05-10T11:57:11;4;4;3
55549;PMS7003;41397;49.972;18.944;2023-05-10T12:00:13;3;3;3
55549;PMS7003;41397;49.972;18.944;2023-05-10T12:03:15;4;4;4
55549;PMS7003;41397;49.972;18.944;2023-05-10T12:06:18;2;2;2
55549;PMS7003;41397;49.972;18.944;2023-05-10T12:09:20;3;3;2
55549;PMS7003;41397;49.972;18.944;2023-05-10T12:12:21;4;4;3
55549;PMS7003;41397;49.972;18.944;2023-05-10T12:15:24;3;3;2
55549;PMS7003;41397;49.972;18.944;2023-05-10T12:18:25;4;4;3
55549;PMS7003;41397;49.972;18.944;2023-05-10T12:21:30;4;4;2
55549;PMS7003;41397;49.972;18.944;2023-05-10T12:24:36;3;3;2
55549;PMS7003;41397;49.972;18.944;2023-05-10T12:27:39;1;1;1
55549;PMS7003;41397;49.972;18.944;2023-05-10T12:30:40;3;3;3
55549;PMS7003;41397;49.972;18.944;2023-05-10T12:33:46;3;3;3
55549;PMS7003;41397;49.972;18.944;2023-05-10T12:36:50;3;3;3
55549;PMS7003;41397;49.972;18.944;2023-05-10T12:39:53;3;3;3
55549;PMS7003;41397;49.972;18.944;2023-05-10T12:42:54;4;4;3
55549;PMS7003;41397;49.972;18.944;2023-05-10T12:45:56;3;3;3
55549;PMS7003;41397;49.972;18.944;2023-05-10T12:48:58;3;3;2
55549;PMS7003;41397;49.972;18.944;2023-05-10T12:52:00;0;0;0
55549;PMS7003;41397;49.972;18.944;2023-05-10T12:55:01;3;3;2
55549;PMS7003;41397;49.972;18.944;2023-05-10T12:58:05;3;3;3
55549;PMS7003;41397;49.972;18.944;2023-05-10T13:01:06;3;3;3
55549;PMS7003;41397;49.972;18.944;2023-05-10T13:04:08;1;1;1
55549;PMS7003;41397;49.972;18.944;2023-05-10T13:07:10;3;3;3
55549;PMS7003;41397;49.972;18.944;2023-05-10T13:10:11;3;2;2
55549;PMS7003;41397;49.972;18.944;2023-05-10T13:13:13;2;2;2
55549;PMS7003;41397;49.972;18.944;2023-05-10T13:16:15;3;3;3
55549;PMS7003;41397;49.972;18.944;2023-05-10T13:19:16;3;3;3
55549;PMS7003;41397;49.972;18.944;2023-05-10T13:22:18;4;4;4
55549;PMS7003;41397;49.972;18.944;2023-05-10T13:25:20;3;3;3
55549;PMS7003;41397;49.972;18.944;2023-05-10T13:28:21;3;3;3
55549;PMS7003;41397;49.972;18.944;2023-05-10T13:31:23;3;3;3
55549;PMS7003;41397;49.972;18.944;2023-05-10T13:34:25;3;3;3
55549;PMS7003;41397;49.972;18.944;2023-05-10T13:37:26;3;3;2
55549;PMS7003;41397;49.972;18.944;2023-05-10T13:40:28;4;4;4
55549;PMS7003;41397;49.972;18.944;2023-05-10T13:43:30;3;3;3
55549;PMS7003;41397;49.972;18.944;2023-05-10T13:46:32;3;3;3
55549;PMS7003;41397;49.972;18.944;2023-05-10T13:49:34;3;3;3
55549;PMS7003;41397;49.972;18.944;2023-05-10T13:52:35;2;2;2
55549;PMS7003;41397;49.972;18.944;2023-05-10T13:55:37;5;5;5
55549;PMS7003;41397;49.972;18.944;2023-05-10T13:58:40;2;2;2
55549;PMS7003;41397;49.972;18.944;2023-05-10T14:01:43;2;2;2
55549;PMS7003;41397;49.972;18.944;2023-05-10T14:04:45;5;5;4
55549;PMS7003;41397;49.972;18.944;2023-05-10T14:07:49;5;5;4
55549;PMS7003;41397;49.972;18.944;2023-05-10T14:10:51;4;4;3
55549;PMS7003;41397;49.972;18.944;2023-05-10T14:13:53;3;3;2
55549;PMS7003;41397;49.972;18.944;2023-05-10T14:16:56;2;2;2
55549;PMS7003;41397;49.972;18.944;2023-05-10T14:19:57;2;2;2
55549;PMS7003;41397;49.972;18.944;2023-05-10T14:22:59;2;2;2
55549;PMS7003;41397;49.972;18.944;2023-05-10T14:26:07;4;4;3
55549;PMS7003;41397;49.972;18.944;2023-05-10T14:29:09;4;4;3
55549;PMS7003;41397;49.972;18.944;2023-05-10T14:32:11;2;2;2
55549;PMS7003;41397;49.972;18.944;2023-05-10T14:35:12;1;1;1
55549;PMS7003;41397;49.972;18.944;2023-05-10T14:38:14;5;5;4
55549;PMS7003;41397;49.972;18.944;2023-05-10T14:41:16;4;4;4
55549;PMS7003;41397;49.972;18.944;2023-05-10T14:44:18;5;5;4
55549;PMS7003;41397;49.972;18.944;2023-05-10T14:47:19;1;1;0
55549;PMS7003;41397;49.972;18.944;2023-05-10T14:50:21;5;5;4
55549;PMS7003;41397;49.972;18.944;2023-05-10T14:53:22;3;3;2
55549;PMS7003;41397;49.972;18.944;2023-05-10T14:56:24;3;3;2
55549;PMS7003;41397;49.972;18.944;2023-05-10T14:59:26;3;3;3
55549;PMS7003;41397;49.972;18.944;2023-05-10T15:02:28;3;3;3
55549;PMS7003;41397;49.972;18.944;2023-05-10T15:05:29;2;2;2
55549;PMS7003;41397;49.972;18.944;2023-05-10T15:08:30;4;4;4
55549;PMS7003;41397;49.972;18.944;2023-05-10T15:11:32;3;3;3
55549;PMS7003;41397;49.972;18.944;2023-05-10T15:14:33;3;3;3
55549;PMS7003;41397;49.972;18.944;2023-05-10T15:17:37;6;6;5
55549;PMS7003;41397;49.972;18.944;2023-05-10T15:20:38;4;4;4
55549;PMS7003;41397;49.972;18.944;2023-05-10T15:23:40;6;6;5
55549;PMS7003;41397;49.972;18.944;2023-05-10T15:26:41;2;2;1
55549;PMS7003;41397;49.972;18.944;2023-05-10T15:29:42;6;6;5
55549;PMS7003;41397;49.972;18.944;2023-05-10T15:32:44;3;3;3
55549;PMS7003;41397;49.972;18.944;2023-05-10T15:35:45;4;4;4
55549;PMS7003;41397;49.972;18.944;2023-05-10T15:38:47;5;5;4
55549;PMS7003;41397;49.972;18.944;2023-05-10T15:41:48;3;3;3
55549;PMS7003;41397;49.972;18.944;2023-05-10T15:44:50;2;2;2
55549;PMS7003;41397;49.972;18.944;2023-05-10T15:47:51;3;3;2
55549;PMS7003;41397;49.972;18.944;2023-05-10T15:50:53;4;4;3
55549;PMS7003;41397;49.972;18.944;2023-05-10T15:53:55;6;6;5
55549;PMS7003;41397;49.972;18.944;2023-05-10T15:56:57;6;6;5
55549;PMS7003;41397;49.972;18.944;2023-05-10T15:59:59;4;4;2
55549;PMS7003;41397;49.972;18.944;2023-05-10T16:03:01;7;7;5
55549;PMS7003;41397;49.972;18.944;2023-05-10T16:06:03;3;3;3
55549;PMS7003;41397;49.972;18.944;2023-05-10T16:09:05;4;4;4
55549;PMS7003;41397;49.972;18.944;2023-05-10T16:12:07;5;5;4
55549;PMS7003;41397;49.972;18.944;2023-05-10T16:15:08;4;4;4
55549;PMS7003;41397;49.972;18.944;2023-05-10T16:18:10;6;6;4
55549;PMS7003;41397;49.972;18.944;2023-05-10T16:21:12;7;7;6
55549;PMS7003;41397;49.972;18.944;2023-05-10T16:24:14;7;7;5
55549;PMS7003;41397;49.972;18.944;2023-05-10T16:27:16;3;3;2
55549;PMS7003;41397;49.972;18.944;2023-05-10T16:30:18;7;7;6
55549;PMS7003;41397;49.972;18.944;2023-05-10T16:33:19;6;6;5
55549;PMS7003;41397;49.972;18.944;2023-05-10T16:36:22;5;5;4
55549;PMS7003;41397;49.972;18.944;2023-05-10T16:39:24;6;6;5
55549;PMS7003;41397;49.972;18.944;2023-05-10T16:43:06;6;6;6
55549;PMS7003;41397;49.972;18.944;2023-05-10T16:46:11;4;4;4
55549;PMS7003;41397;49.972;18.944;2023-05-10T16:49:12;7;7;6
55549;PMS7003;41397;49.972;18.944;2023-05-10T16:52:14;8;8;7
55549;PMS7003;41397;49.972;18.944;2023-05-10T16:55:16;11;11;8
55549;PMS7003;41397;49.972;18.944;2023-05-10T16:58:17;5;5;5
55549;PMS7003;41397;49.972;18.944;2023-05-10T17:01:19;9;9;7
55549;PMS7003;41397;49.972;18.944;2023-05-10T17:04:22;8;7;6
55549;PMS7003;41397;49.972;18.944;2023-05-10T17:07:24;7;7;5
55549;PMS7003;41397;49.972;18.944;2023-05-10T17:10:28;7;7;6
55549;PMS7003;41397;49.972;18.944;2023-05-10T17:13:30;9;9;6
55549;PMS7003;41397;49.972;18.944;2023-05-10T17:16:31;9;9;7
55549;PMS7003;41397;49.972;18.944;2023-05-10T17:19:33;10;10;8
55549;PMS7003;41397;49.972;18.944;2023-05-10T17:22:34;9;9;5
55549;PMS7003;41397;49.972;18.944;2023-05-10T17:25:36;3;3;2
55549;PMS7003;41397;49.972;18.944;2023-05-10T17:28:38;12;6;4
55549;PMS7003;41397;49.972;18.944;2023-05-10T17:31:40;8;8;7
55549;PMS7003;41397;49.972;18.944;2023-05-10T17:34:41;7;7;5
55549;PMS7003;41397;49.972;18.944;2023-05-10T17:37:44;8;8;7
55549;PMS7003;41397;49.972;18.944;2023-05-10T17:40:46;8;8;6
55549;PMS7003;41397;49.972;18.944;2023-05-10T17:43:47;7;7;6
55549;PMS7003;41397;49.972;18.944;2023-05-10T17:46:48;9;9;7
55549;PMS7003;41397;49.972;18.944;2023-05-10T17:49:50;3;3;3
55549;PMS7003;41397;49.972;18.944;2023-05-10T17:52:53;6;6;5
55549;PMS7003;41397;49.972;18.944;2023-05-10T17:55:55;8;8;7
55549;PMS7003;41397;49.972;18.944;2023-05-10T17:59:01;8;8;6
55549;PMS7003;41397;49.972;18.944;2023-05-10T18:02:03;10;10;9
55549;PMS7003;41397;49.972;18.944;2023-05-10T18:05:05;15;15;9
55549;PMS7003;41397;49.972;18.944;2023-05-10T18:08:07;9;9;8
55549;PMS7003;41397;49.972;18.944;2023-05-10T18:11:09;9;9;7
55549;PMS7003;41397;49.972;18.944;2023-05-10T18:14:11;14;14;12
55549;PMS7003;41397;49.972;18.944;2023-05-10T18:17:12;11;11;9
55549;PMS7003;41397;49.972;18.944;2023-05-10T18:20:14;11;10;9
55549;PMS7003;41397;49.972;18.944;2023-05-10T18:23:16;6;6;6
55549;PMS7003;41397;49.972;18.944;2023-05-10T18:26:17;9;9;8
55549;PMS7003;41397;49.972;18.944;2023-05-10T18:29:18;5;5;5
55549;PMS7003;41397;49.972;18.944;2023-05-10T18:32:21;13;11;7
55549;PMS7003;41397;49.972;18.944;2023-05-10T18:35:25;12;12;9
55549;PMS7003;41397;49.972;18.944;2023-05-10T18:38:26;9;9;8
55549;PMS7003;41397;49.972;18.944;2023-05-10T18:41:28;7;7;6
55549;PMS7003;41397;49.972;18.944;2023-05-10T18:44:29;9;9;7
55549;PMS7003;41397;49.972;18.944;2023-05-10T18:47:32;8;8;7
55549;PMS7003;41397;49.972;18.944;2023-05-10T18:50:34;17;17;13
55549;PMS7003;41397;49.972;18.944;2023-05-10T18:53:35;11;11;9
55549;PMS7003;41397;49.972;18.944;2023-05-10T18:56:37;13;13;7
55549;PMS7003;41397;49.972;18.944;2023-05-10T18:59:44;12;12;9
55549;PMS7003;41397;49.972;18.944;2023-05-10T19:02:46;10;10;9
55549;PMS7003;41397;49.972;18.944;2023-05-10T19:05:47;13;13;10
55549;PMS7003;41397;49.972;18.944;2023-05-10T19:08:49;11;11;9
55549;PMS7003;41397;49.972;18.944;2023-05-10T19:11:50;15;15;11
55549;PMS7003;41397;49.972;18.944;2023-05-10T19:14:52;15;15;13
55549;PMS7003;41397;49.972;18.944;2023-05-10T19:17:53;15;15;13
55549;PMS7003;41397;49.972;18.944;2023-05-10T19:20:55;10;10;8
55549;PMS7003;41397;49.972;18.944;2023-05-10T19:23:56;11;11;11
55549;PMS7003;41397;49.972;18.944;2023-05-10T19:26:59;12;12;11
55549;PMS7003;41397;49.972;18.944;2023-05-10T19:30:01;10;10;10
55549;PMS7003;41397;49.972;18.944;2023-05-10T19:33:03;10;10;9
55549;PMS7003;41397;49.972;18.944;2023-05-10T19:36:05;10;10;9
55549;PMS7003;41397;49.972;18.944;2023-05-10T19:39:06;10;10;8
55549;PMS7003;41397;49.972;18.944;2023-05-10T19:42:08;9;9;8
55549;PMS7003;41397;49.972;18.944;2023-05-10T19:45:10;14;14;11
55549;PMS7003;41397;49.972;18.944;2023-05-10T19:48:12;14;14;11
55549;PMS7003;41397;49.972;18.944;2023-05-10T19:51:13;19;19;10
55549;PMS7003;41397;49.972;18.944;2023-05-10T19:54:15;10;10;9
55549;PMS7003;41397;49.972;18.944;2023-05-10T19:57:16;7;7;7
55549;PMS7003;41397;49.972;18.944;2023-05-10T20:00:18;7;7;6
55549;PMS7003;41397;49.972;18.944;2023-05-10T20:03:19;13;13;10
55549;PMS7003;41397;49.972;18.944;2023-05-10T20:06:21;16;16;13
55549;PMS7003;41397;49.972;18.944;2023-05-10T20:09:22;9;9;6
55549;PMS7003;41397;49.972;18.944;2023-05-10T20:12:24;17;17;11
55549;PMS7003;41397;49.972;18.944;2023-05-10T20:15:27;16;16;9
55549;PMS7003;41397;49.972;18.944;2023-05-10T20:18:29;22;22;18